• Join FlightAware (Why Join?)
  • Login
  • US Flag 
01:43PM EDT


 

Airport Tracker/Info


-or-


 

Live Flight TrackerFlight Track Log ✈ EJM42 ✈ 23-Mar-2014 ✈ KTEB - TQPF / AXA

Flight Track Log - Related Links

Times and Time Zones

All times are in EDT time to prevent confusion due to time zone crossing. See the EJM42 flight status page for this flight to view local times or setup timezone preferences in your user account.

Time Position Orientation Groundspeed Altitude Reporting Facility
EDT Latitude Longitude Course Direction KTS MPH feet Rate Location/Type
09:01AM 40.9000 -74.0333 294° West 184 212 2,500  Level New York TRACON
09:02AM 40.9167 -74.0833 294° West 228 262 4,700 1,740 Climbing New York TRACON
09:03AM 40.9000 -74.1833 258° West 245 282 6,000 1,260 Climbing New York TRACON
09:04AM 40.8333 -74.2167 201° Southwest 265 305 7,200 1,560 Climbing New York TRACON
09:05AM 40.7667 -74.2167 180° South 279 321 8,900 2,220 Climbing New York TRACON
09:06AM 40.6833 -74.2167 180° South 280 322 11,700 2,580 Climbing New York TRACON
09:07AM 40.6000 -74.2167 180° South 305 351 14,100 1,680 Climbing New York TRACON
09:08AM 40.5167 -74.2000 171° South 343 395 15,000 900 Climbing New York TRACON
09:09AM 40.3372 -74.1881 177° South 366 421 16,600 960 Climbing New York Center
09:10AM 40.2408 -74.1292 155° Southeast 371 427 17,900 1,560 Climbing New York Center
09:11AM 40.1842 -74.0014 120° Southeast 423 487 19,800 1,800 Climbing New York Center
09:12AM 40.1317 -73.8550 115° Southeast 435 501 21,600 1,800 Climbing New York Center
09:13AM 40.0539 -73.7186 127° Southeast 452 520 23,400 1,800 Climbing New York Center
09:14AM 39.9803 -73.5800 125° Southeast 457 526 25,200 1,740 Climbing New York Center
09:15AM 39.9003 -73.4333 125° Southeast 478 550 26,900 1,680 Climbing New York Center
09:16AM 39.8203 -73.2844 125° Southeast 493 567 28,600 1,680 Climbing New York Center
09:17AM 39.7339 -73.1300 126° Southeast 512 589 30,300 1,560 Climbing New York Center
09:18AM 39.6492 -72.9789 126° Southeast 518 596 31,800 1,500 Climbing New York Center
09:19AM 39.5625 -72.8228 126° Southeast 523 602 33,300 1,500 Climbing New York Center
09:20AM 39.4756 -72.6642 125° Southeast 533 613 34,800 1,560 Climbing New York Center
09:21AM 39.3842 -72.5006 126° Southeast 544 626 36,500 1,740 Climbing New York Center
09:22AM 39.2969 -72.3456 126° Southeast 551 634 38,300 1,620 Climbing New York Center
09:23AM 39.2072 -72.1906 127° Southeast 546 628 39,800 1,200 Climbing New York Center
09:24AM 39.1214 -72.0336 125° Southeast 541 623 40,800 600 Climbing New York Center
09:25AM 39.0311 -71.8825 128° Southeast 536 617 41,000 60 Climbing New York Center
09:26AM 38.9408 -71.7208 126° Southeast 541 623 41,000  Level New York Center
09:27AM 38.8483 -71.5569 126° Southeast 553 636 41,000  Level New York Center
09:28AM 38.7533 -71.4014 128° Southeast 559 643 41,000  Level New York Center
09:29AM 38.6583 -71.2408 127° Southeast 564 649 41,000  Level New York Center
09:30AM 38.5672 -71.0756 125° Southeast 564 649 41,000  Level New York Center
09:31AM 38.4717 -70.9214 128° Southeast 564 649 41,000  Level New York Center
09:32AM 38.3781 -70.7594 126° Southeast 564 649 41,000  Level New York Center
09:33AM 38.2861 -70.6006 126° Southeast 564 649 41,000  Level New York Center
09:34AM 38.2025 -70.4556 126° Southeast 559 643 41,000  Level New York Center
09:35AM 38.0831 -70.2764 130° Southeast 566 651 41,000  Level New York Center
09:36AM 37.9928 -70.1478 132° Southeast 566 651 41,000  Level New York Center
09:37AM 37.8711 -69.9908 134° Southeast 555 639 41,000  Level New York Center
09:38AM 37.7636 -69.8500 134° Southeast 555 639 41,000  Level New York Center
09:50AM 36.5667 -68.2833 142° Southeast 515 593 41,000  Level New York Oceanic (ODAPS)
09:59AM 35.4486 -67.1917 143° Southeast 487 560 41,000  Level New York Center
10:00AM 35.3221 -67.0911 143° Southeast 515 593 41,000  Level FlightAware Transoceanic
10:00AM 35.3244 -67.0878 146° Southeast 528 608 41,000  Level New York Center
10:01AM 35.2084 -66.9845 143° Southeast 515 593 41,000  Level FlightAware Transoceanic
10:01AM 35.2017 -66.9689 142° Southeast 555 639 41,000  Level New York Center
10:02AM 35.0946 -66.8783 143° Southeast 515 593 41,000  Level FlightAware Transoceanic
10:02AM 35.0792 -66.8578 143° Southeast 555 639 41,000  Level New York Center
10:03AM 34.9807 -66.7723 143° Southeast 515 593 41,000  Level FlightAware Transoceanic
10:03AM 34.9714 -66.7542 142° Southeast 550 633 41,000  Level New York Center
10:04AM 34.8244 -66.6603 152° Southeast 545 627 41,000  Level New York Center
10:05AM 34.6831 -66.6119 164° South 527 606 41,000  Level New York Center
10:06AM 34.5506 -66.5883 172° South 530 610 41,000  Level New York Center
10:07AM 34.3908 -66.5511 169° South 529 609 41,000  Level New York Center
10:08AM 34.2644 -66.5125 166° South 523 602 41,000  Level New York Center
10:09AM 34.0964 -66.4836 172° South 540 621 41,000  Level New York Center
10:10AM 33.9511 -66.4461 168° South 540 621 41,000  Level New York Center
10:11AM 33.8208 -66.4178 170° South 540 621 41,000  Level New York Center
10:12AM 33.6608 -66.3789 169° South 526 605 41,000  Level New York Center
10:13AM 33.5158 -66.3442 169° South 537 618 41,000  Level New York Center
10:14AM 33.3853 -66.3089 167° South 537 618 41,000  Level New York Center
10:15AM 33.2233 -66.2728 169° South 542 624 41,000  Level New York Center
10:16AM 33.0931 -66.2450 170° South 535 616 41,000  Level New York Center
10:17AM 32.9269 -66.2069 169° South 545 627 41,000  Level New York Center
10:18AM 32.7839 -66.1725 169° South 545 627 41,000  Level New York Center
10:19AM 32.6514 -66.1428 169° South 540 621 41,000  Level New York Center
10:20AM 32.4872 -66.1050 169° South 541 623 41,000  Level New York Center
10:21AM 32.3528 -66.0756 170° South 541 623 41,000  Level New York Center
10:22AM 32.1931 -66.0378 169° South 541 623 41,000  Level New York Center
10:23AM 32.0478 -66.0042 169° South 543 625 41,000  Level New York Center
10:24AM 31.9175 -65.9744 169° South 538 619 41,000  Level New York Center
10:25AM 31.7578 -65.9394 169° South 539 620 41,000  Level New York Center
10:26AM 31.6128 -65.9086 170° South 539 620 41,000  Level New York Center
10:27AM 31.4825 -65.8794 169° South 531 611 41,000  Level New York Center
10:28AM 31.3250 -65.8444 169° South 530 610 41,000  Level New York Center
10:29AM 31.1967 -65.8131 168° South 520 598 41,000  Level New York Center
10:30AM 31.0389 -65.7783 169° South 526 605 41,000  Level New York Center
10:31AM 30.8983 -65.7500 170° South 526 605 41,000  Level New York Center
10:32AM 30.7700 -65.7186 168° South 526 605 41,000  Level New York Center
10:33AM 30.6103 -65.6819 169° South 532 612 41,000  Level New York Center
10:34AM 30.4803 -65.6558 170° South 527 606 41,000  Level New York Center
10:35AM 30.3203 -65.6169 168° South 527 606 41,000  Level New York Center
10:36AM 30.1753 -65.5797 167° South 534 615 41,000  Level New York Center
10:37AM 30.0497 -65.5653 174° South 521 600 41,000  Level New York Center
10:38AM 29.8856 -65.5175 166° South 532 612 41,000  Level New York Center
10:39AM 29.7406 -65.4856 169° South 533 613 41,000  Level New York Center
10:40AM 29.6125 -65.4547 168° South 533 613 41,000  Level New York Center
10:41AM 29.4508 -65.4192 169° South 533 613 41,000  Level New York Center
10:42AM 29.3208 -65.3911 169° South 526 605 41,000  Level New York Center
10:43AM 29.1636 -65.3625 171° South 533 613 41,000  Level New York Center
10:57AM 27.3167 -64.9667 169° South 550 633 41,000  Level New York Oceanic (ODAPS)
11:11AM 25.5167 -64.5833 169° South 512 589 41,000  Level New York Oceanic (ODAPS)
11:28AM 22.8333 -64.0333 170° South 512 589 41,000  Level New York Oceanic (ODAPS)
11:33AM 21.9000 -63.8500 170° South 510 587 41,000  Level San Juan Center
11:34AM 21.8500 -63.8500 170° South 512 589 41,000  Level FlightAware Transoceanic
11:35AM 21.7127 -63.8228 170° South 512 589 41,000  Level FlightAware Transoceanic
11:35AM 21.6833 -63.8167 172° South 500 575 41,000  Level San Juan Center
11:36AM 21.5754 -63.7956 170° South 512 589 41,000  Level FlightAware Transoceanic
11:36AM 21.5167 -63.7833 169° South 510 587 41,000  Level San Juan Center
11:37AM 21.4381 -63.7684 170° South 512 589 41,000  Level FlightAware Transoceanic
11:37AM 21.4000 -63.7500 165° South 510 587 41,000  Level San Juan Center
11:38AM 21.3008 -63.7413 170° South 512 589 41,000  Level FlightAware Transoceanic
11:38AM 21.2333 -63.7167 169° South 510 587 41,000  Level San Juan Center
11:39AM 21.1635 -63.7143 170° South 512 589 41,000  Level FlightAware Transoceanic
11:39AM 21.1000 -63.7000 173° South 520 598 41,000  Level San Juan Center
11:40AM 20.9500 -63.6667 168° South 510 587 41,000  Level San Juan Center
11:41AM 20.8167 -63.6333 167° South 510 587 41,000 -480 Level San Juan Center
11:42AM 20.6833 -63.6167 173° South 510 587 40,100 -1,020 Descending San Juan Center
11:43AM 20.5333 -63.5833 168° South 500 575 39,000 -1,320 Descending San Juan Center
11:44AM 20.4000 -63.5667 173° South 500 575 37,500 -1,560 Descending San Juan Center
11:45AM 20.2667 -63.5333 167° South 500 575 35,900 -1,680 Descending San Juan Center
11:46AM 20.1333 -63.5000 167° South 500 575 34,200 -1,800 Descending San Juan Center
11:47AM 19.9833 -63.4833 174° South 500 575 32,300 -1,920 Descending San Juan Center
11:48AM 19.8500 -63.4500 167° South 500 575 30,400 -2,040 Descending San Juan Center
11:49AM 19.7167 -63.4333 173° South 500 575 28,300 -2,040 Descending San Juan Center
11:50AM 19.5833 -63.4000 167° South 480 552 26,400 -1,980 Descending San Juan Center
11:51AM 19.4333 -63.3667 168° South 460 529 24,400 -1,920 Descending San Juan Center
11:52AM 19.3333 -63.3500 171° South 440 506 22,600 -1,860 Descending San Juan Center
11:53AM 19.2167 -63.3333 172° South 420 483 20,700 -1,980 Descending San Juan Center
11:54AM 19.1000 -63.3167 172° South 420 483 18,700 -1,800 Descending San Juan Center
11:55AM 19.0000 -63.3000 171° South 410 472 17,200 -1,860 Descending San Juan Center
11:56AM 18.8833 -63.2667 165° South 400 460 15,000 -2,040 Descending San Juan Center
11:57AM 18.7833 -63.2500 171° South 380 437 13,100 -1,740 Descending San Juan Center
11:58AM 18.6833 -63.2333 171° South 370 426 11,500 -1,560 Descending San Juan Center
11:59AM 18.6000 -63.2167 169° South 340 391 10,000 -1,500 Descending San Juan Center
12:00PM 18.5167 -63.2000 169° South 310 357 8,500 -1,860 Descending San Juan Center
12:01PM 18.4333 -63.1833 169° South 300 345 6,300 -2,220 Descending San Juan Center